createdAt,value
2023-02-26T00:01:46.795Z,51.09
2023-02-26T00:04:14.822Z,50.59
2023-02-26T00:06:53.104Z,51.38
2023-02-26T00:09:23.206Z,51.08
2023-02-26T00:11:51.812Z,51.35
2023-02-26T00:14:21.219Z,50.92
2023-02-26T00:16:56.735Z,50.94
2023-02-26T00:19:25.142Z,51.37
2023-02-26T00:21:55.490Z,50.98
2023-02-26T00:24:23.668Z,51.14
2023-02-26T00:26:51.678Z,51.31
2023-02-26T00:29:20.611Z,50.44
2023-02-26T00:31:49.573Z,50.33
2023-02-26T00:34:18.328Z,50.87
2023-02-26T00:36:53.658Z,50.63
2023-02-26T00:39:39.849Z,50.38
2023-02-26T00:42:09.252Z,51.13
2023-02-26T00:44:38.257Z,50.96
2023-02-26T00:47:15.828Z,50.36
2023-02-26T00:50:03.382Z,50.87
2023-02-26T00:52:42.777Z,50.60
2023-02-26T00:55:12.161Z,51.24
2023-02-26T00:57:40.209Z,50.59
2023-02-26T01:00:10.574Z,50.80
2023-02-26T01:02:40.711Z,51.03
2023-02-26T01:05:11.485Z,50.77
2023-02-26T01:07:45.618Z,50.13
2023-02-26T01:10:16.231Z,50.62
2023-02-26T01:12:45.161Z,50.07
2023-02-26T01:15:14.868Z,50.11
2023-02-26T01:17:49.878Z,50.56
2023-02-26T01:20:21.692Z,50.15
2023-02-26T01:22:55.850Z,50.36
2023-02-26T01:25:31.297Z,50.89
2023-02-26T01:27:59.958Z,51.20
2023-02-26T01:30:28.778Z,50.41
2023-02-26T01:33:04.582Z,50.71
2023-02-26T01:35:44.647Z,50.59
2023-02-26T01:38:27.381Z,50.27
2023-02-26T01:41:23.330Z,51.13
2023-02-26T01:44:01.418Z,50.46
2023-02-26T01:46:37.670Z,50.11
2023-02-26T01:49:13.244Z,50.30
2023-02-26T01:51:51.608Z,50.30
2023-02-26T01:54:23.863Z,50.69
2023-02-26T01:57:01.201Z,50.61
2023-02-26T01:59:29.322Z,50.93
2023-02-26T02:02:00.544Z,50.98
2023-02-26T02:04:28.897Z,51.19
2023-02-26T02:06:57.241Z,51.10
2023-02-26T02:09:25.401Z,50.77
2023-02-26T02:12:25.457Z,50.74
2023-02-26T02:15:06.344Z,50.92
2023-02-26T02:17:46.020Z,50.82
2023-02-26T02:20:53.330Z,50.87
2023-02-26T02:23:28.457Z,51.05
2023-02-26T02:26:19.331Z,50.76
2023-02-26T02:29:16.870Z,51.07
2023-02-26T02:31:53.565Z,51.01
2023-02-26T02:34:27.925Z,51.19
2023-02-26T02:37:00.940Z,51.43
2023-02-26T02:39:33.026Z,51.38
2023-02-26T02:42:09.040Z,50.77
2023-02-26T02:44:42.655Z,50.82
2023-02-26T02:47:14.417Z,50.90
2023-02-26T02:49:52.465Z,51.20
2023-02-26T02:52:27.910Z,51.48
2023-02-26T02:54:59.855Z,51.61
2023-02-26T02:57:34.709Z,51.41
2023-02-26T03:00:09.083Z,51.88
2023-02-26T03:02:45.817Z,51.06
2023-02-26T03:05:14.711Z,51.17
2023-02-26T03:07:49.421Z,51.11
2023-02-26T03:10:18.960Z,51.93
2023-02-26T03:12:47.097Z,51.61
2023-02-26T03:15:19.458Z,51.22
2023-02-26T03:18:01.566Z,51.78
2023-02-26T03:20:35.913Z,52.22
2023-02-26T03:23:19.911Z,52.30
2023-02-26T03:25:52.871Z,52.08
2023-02-26T03:28:29.467Z,51.78
2023-02-26T03:31:04.100Z,52.15
2023-02-26T03:33:43.347Z,51.84
2023-02-26T03:36:19.356Z,51.71
2023-02-26T03:39:05.047Z,52.00
2023-02-26T03:41:39.220Z,52.10
2023-02-26T03:44:15.338Z,52.26
2023-02-26T03:46:49.691Z,52.09
2023-02-26T03:49:27.738Z,52.47
2023-02-26T03:51:58.029Z,52.46
2023-02-26T03:54:58.641Z,52.78
2023-02-26T03:57:47.716Z,52.50
2023-02-26T04:00:27.068Z,52.24
2023-02-26T04:03:04.143Z,52.81
2023-02-26T04:05:39.246Z,53.01
2023-02-26T04:08:08.244Z,52.61
2023-02-26T04:10:42.466Z,52.27
2023-02-26T04:13:11.065Z,52.45
2023-02-26T04:16:07.413Z,52.87
2023-02-26T04:18:35.998Z,52.40
2023-02-26T04:21:06.611Z,52.27
2023-02-26T04:23:39.843Z,51.67
2023-02-26T04:26:09.873Z,52.00
2023-02-26T04:28:40.902Z,52.36
2023-02-26T04:31:12.399Z,51.64
2023-02-26T04:33:41.427Z,52.46
2023-02-26T04:36:11.496Z,52.16
2023-02-26T04:38:40.676Z,52.58
2023-02-26T04:41:09.265Z,52.65
2023-02-26T04:43:37.715Z,52.50
2023-02-26T04:46:21.963Z,52.86
2023-02-26T04:48:50.073Z,52.59
2023-02-26T04:51:19.562Z,53.03
2023-02-26T04:53:47.813Z,52.78
2023-02-26T04:56:16.386Z,53.87
2023-02-26T04:58:44.625Z,53.96
2023-02-26T05:01:18.092Z,53.72
2023-02-26T05:03:46.222Z,53.47
2023-02-26T05:06:14.317Z,53.83
2023-02-26T05:08:44.228Z,54.12
2023-02-26T05:11:13.240Z,53.97
2023-02-26T05:13:41.326Z,53.84
2023-02-26T05:16:09.962Z,54.05
2023-02-26T05:18:38.391Z,53.99
2023-02-26T05:21:07.013Z,54.06
2023-02-26T05:23:35.643Z,53.93
2023-02-26T05:26:05.438Z,54.02
2023-02-26T05:28:38.477Z,53.90
2023-02-26T05:31:07.416Z,53.98
2023-02-26T05:33:36.699Z,53.78
2023-02-26T05:36:07.017Z,54.01
2023-02-26T05:38:35.415Z,53.92
2023-02-26T05:41:05.750Z,54.02
2023-02-26T05:43:34.551Z,53.93
2023-02-26T05:46:02.682Z,54.15
2023-02-26T05:48:31.013Z,53.81
2023-02-26T05:50:59.130Z,53.52
2023-02-26T05:53:27.241Z,53.66
2023-02-26T05:55:55.375Z,53.66
2023-02-26T05:58:24.994Z,53.71
2023-02-26T06:00:53.109Z,53.93
2023-02-26T06:03:21.219Z,54.06
2023-02-26T06:05:49.636Z,54.07
2023-02-26T06:08:17.720Z,53.95
2023-02-26T06:10:45.849Z,54.03
2023-02-26T06:13:13.924Z,53.72
2023-02-26T06:15:43.319Z,53.96
2023-02-26T06:18:11.407Z,53.77
2023-02-26T06:20:39.488Z,53.96
2023-02-26T06:23:07.740Z,53.83
2023-02-26T06:25:35.810Z,53.81
2023-02-26T06:28:03.956Z,54.16
2023-02-26T06:30:32.106Z,54.34
2023-02-26T06:33:01.640Z,53.99
2023-02-26T06:35:30.110Z,54.52
2023-02-26T06:37:58.328Z,54.66
2023-02-26T06:40:26.501Z,54.30
2023-02-26T06:42:54.573Z,54.32
2023-02-26T06:45:22.721Z,54.37
2023-02-26T06:47:50.758Z,54.31
2023-02-26T06:50:20.565Z,54.12
2023-02-26T06:52:48.600Z,54.31
2023-02-26T06:55:16.757Z,54.47
2023-02-26T06:57:45.410Z,54.86
2023-02-26T07:00:15.021Z,54.82
2023-02-26T07:02:43.142Z,54.82
2023-02-26T07:05:12.214Z,54.41
2023-02-26T07:07:41.827Z,54.77
2023-02-26T07:10:12.752Z,54.76
2023-02-26T07:12:40.938Z,54.70
2023-02-26T07:15:10.067Z,54.96
2023-02-26T07:17:38.097Z,54.61
2023-02-26T07:20:10.011Z,54.88
2023-02-26T07:22:38.742Z,55.91
2023-02-26T07:25:09.442Z,55.27
2023-02-26T07:27:38.002Z,55.32
2023-02-26T07:30:08.530Z,54.84
2023-02-26T07:32:37.081Z,54.69
2023-02-26T07:35:08.498Z,54.78
2023-02-26T07:37:36.557Z,54.82
2023-02-26T07:40:05.344Z,55.17
2023-02-26T07:42:34.752Z,55.36
2023-02-26T07:45:03.367Z,55.10
2023-02-26T07:47:31.491Z,54.88
2023-02-26T07:49:59.536Z,54.87
2023-02-26T07:52:28.673Z,54.92
2023-02-26T07:54:56.744Z,54.75
2023-02-26T07:57:24.826Z,54.63
2023-02-26T07:59:54.251Z,54.85
2023-02-26T08:02:23.356Z,55.41
2023-02-26T08:04:51.783Z,54.59
2023-02-26T08:07:20.366Z,54.72
2023-02-26T08:09:48.395Z,54.93
2023-02-26T08:12:16.732Z,54.76
2023-02-26T08:14:44.765Z,54.95
2023-02-26T08:17:14.126Z,55.45
2023-02-26T08:19:42.269Z,53.95
2023-02-26T08:22:10.342Z,53.97
2023-02-26T08:24:39.275Z,54.91
2023-02-26T08:27:07.338Z,54.89
2023-02-26T08:29:35.447Z,55.21
2023-02-26T08:32:03.569Z,55.13
2023-02-26T08:34:32.997Z,55.36
2023-02-26T08:37:01.000Z,54.49
2023-02-26T08:39:32.905Z,54.89
2023-02-26T08:42:00.948Z,54.18
2023-02-26T08:44:28.999Z,54.08
2023-02-26T08:46:57.446Z,53.90
2023-02-26T08:49:25.504Z,54.43
2023-02-26T08:51:54.880Z,54.17
2023-02-26T08:54:22.904Z,54.18
2023-02-26T08:56:50.927Z,54.33
2023-02-26T08:59:19.196Z,54.73
2023-02-26T09:01:47.268Z,54.90
2023-02-26T09:04:15.714Z,55.19
2023-02-26T09:06:44.023Z,54.67
2023-02-26T09:09:13.675Z,54.71
2023-02-26T09:11:41.708Z,54.66
2023-02-26T09:14:09.918Z,54.58
2023-02-26T09:16:38.769Z,54.79
2023-02-26T09:19:08.919Z,54.93
2023-02-26T09:21:37.399Z,55.43
2023-02-26T09:24:05.795Z,55.69
2023-02-26T09:26:35.198Z,55.84
2023-02-26T09:29:03.384Z,56.28
2023-02-26T09:31:31.632Z,56.23
2023-02-26T09:33:59.911Z,56.56
2023-02-26T09:36:28.459Z,56.56
2023-02-26T09:38:56.623Z,56.62
2023-02-26T09:41:30.557Z,56.69
2023-02-26T09:44:16.458Z,57.18
2023-02-26T09:46:54.850Z,57.21
2023-02-26T09:49:35.057Z,57.57
2023-02-26T09:52:13.721Z,57.27
2023-02-26T09:54:48.382Z,57.16
2023-02-26T09:57:28.792Z,57.07
2023-02-26T10:00:00.248Z,57.09
2023-02-26T10:02:39.349Z,57.56
2023-02-26T10:05:20.106Z,56.57
2023-02-26T10:07:57.965Z,57.36
2023-02-26T10:10:39.881Z,57.83
2023-02-26T10:13:23.620Z,56.72
2023-02-26T10:15:58.420Z,57.17
2023-02-26T10:18:32.204Z,57.76
2023-02-26T10:21:08.590Z,57.75
2023-02-26T10:23:44.081Z,57.60
2023-02-26T10:26:20.186Z,57.78
2023-02-26T10:28:59.757Z,58.28
2023-02-26T10:31:38.677Z,57.59
2023-02-26T10:34:22.572Z,57.64
2023-02-26T10:36:57.279Z,57.67
2023-02-26T10:39:33.536Z,56.76
2023-02-26T10:42:07.069Z,57.30
2023-02-26T10:44:44.169Z,57.36
2023-02-26T10:47:27.040Z,56.75
2023-02-26T10:50:01.382Z,57.44
2023-02-26T10:52:33.762Z,56.61
2023-02-26T10:55:22.925Z,57.04
2023-02-26T10:58:01.246Z,56.46
2023-02-26T11:00:29.634Z,55.88
2023-02-26T11:02:59.590Z,56.62
2023-02-26T11:05:31.203Z,55.97
2023-02-26T11:08:03.148Z,56.20
2023-02-26T11:10:43.227Z,56.16
2023-02-26T11:13:12.916Z,56.99
2023-02-26T11:15:41.517Z,56.28
2023-02-26T11:18:17.685Z,56.45
2023-02-26T11:20:48.378Z,55.61
2023-02-26T11:23:22.218Z,56.73
2023-02-26T11:25:59.899Z,56.17
2023-02-26T11:28:35.943Z,55.02
2023-02-26T11:31:08.867Z,56.11
2023-02-26T11:33:41.327Z,55.28
2023-02-26T11:36:13.484Z,54.72
2023-02-26T11:38:45.771Z,54.80
2023-02-26T11:41:15.027Z,55.10
2023-02-26T11:43:47.048Z,54.44
2023-02-26T11:46:15.534Z,54.69
2023-02-26T11:48:48.861Z,54.49
2023-02-26T11:51:24.016Z,54.15
2023-02-26T11:53:55.504Z,54.09
2023-02-26T11:56:31.206Z,54.61
2023-02-26T11:59:08.581Z,54.40
2023-02-26T12:01:37.905Z,55.01
2023-02-26T12:04:12.302Z,54.08
2023-02-26T12:06:40.772Z,53.64
2023-02-26T12:09:13.410Z,53.03
2023-02-26T12:11:58.516Z,52.72
2023-02-26T12:15:02.846Z,53.34
2023-02-26T12:17:53.787Z,53.35
2023-02-26T12:20:32.882Z,53.04
2023-02-26T12:23:35.976Z,53.86
2023-02-26T12:26:23.209Z,53.14
2023-02-26T12:29:12.166Z,53.40
2023-02-26T12:32:06.985Z,53.99
2023-02-26T12:35:06.734Z,54.04
2023-02-26T12:37:52.586Z,52.87
2023-02-26T12:40:51.516Z,53.02
2023-02-26T12:43:33.595Z,53.51
2023-02-26T12:46:17.759Z,53.39
2023-02-26T12:49:14.477Z,53.37
2023-02-26T12:52:16.494Z,54.06
2023-02-26T12:55:04.323Z,53.38
2023-02-26T12:57:57.170Z,53.55
2023-02-26T13:00:45.578Z,53.79
2023-02-26T13:03:58.503Z,53.01
2023-02-26T13:06:59.573Z,52.93
2023-02-26T13:09:38.686Z,53.46
2023-02-26T13:12:31.795Z,54.80
2023-02-26T13:15:19.994Z,54.46
2023-02-26T13:17:58.254Z,54.04
2023-02-26T13:20:29.268Z,53.54
2023-02-26T13:23:02.886Z,53.43
2023-02-26T13:25:39.494Z,53.49
2023-02-26T13:28:20.232Z,53.03
2023-02-26T13:30:54.451Z,52.69
2023-02-26T13:33:28.962Z,52.79
2023-02-26T13:35:58.364Z,51.04
2023-02-26T13:38:45.011Z,51.93
2023-02-26T13:41:17.901Z,52.39
2023-02-26T13:44:08.084Z,54.00
2023-02-26T13:46:52.658Z,53.83
2023-02-26T13:49:31.298Z,53.80
2023-02-26T13:51:59.446Z,54.16
2023-02-26T13:54:42.531Z,55.09
2023-02-26T13:57:38.441Z,53.99
2023-02-26T14:00:28.522Z,53.63
2023-02-26T14:02:58.317Z,53.55
2023-02-26T14:06:09.680Z,52.05
2023-02-26T14:08:47.174Z,51.84
2023-02-26T14:11:47.664Z,51.69
2023-02-26T14:14:37.539Z,52.21
2023-02-26T14:17:38.857Z,51.15
2023-02-26T14:20:26.693Z,51.38
2023-02-26T14:23:19.596Z,50.85
2023-02-26T14:25:50.353Z,50.35
2023-02-26T14:29:08.074Z,49.71
2023-02-26T14:32:10.070Z,49.16
2023-02-26T14:34:51.221Z,48.55
2023-02-26T14:37:24.331Z,47.07
2023-02-26T14:39:58.596Z,46.87
2023-02-26T14:42:36.733Z,46.65
2023-02-26T14:45:28.399Z,45.65
2023-02-26T14:47:57.737Z,45.34
2023-02-26T14:50:35.732Z,45.39
2023-02-26T14:53:46.758Z,46.21
2023-02-26T14:56:26.554Z,46.13
2023-02-26T14:59:12.659Z,46.56
2023-02-26T15:01:55.567Z,46.81
2023-02-26T15:05:10.204Z,46.44
2023-02-26T15:07:59.996Z,46.76
2023-02-26T15:10:45.750Z,46.69
2023-02-26T15:13:47.297Z,45.92
2023-02-26T15:16:29.283Z,45.38
2023-02-26T15:19:15.607Z,46.14
2023-02-26T15:21:59.781Z,46.33
2023-02-26T15:24:31.909Z,46.37
2023-02-26T15:27:08.857Z,46.42
2023-02-26T15:29:41.185Z,47.08
2023-02-26T15:32:22.870Z,46.60
2023-02-26T15:34:59.888Z,47.46
2023-02-26T15:37:33.902Z,48.12
2023-02-26T15:40:06.735Z,49.10
2023-02-26T15:42:40.758Z,47.95
2023-02-26T15:45:20.124Z,47.51
2023-02-26T15:47:53.169Z,48.22
2023-02-26T15:50:26.107Z,47.43
2023-02-26T15:53:04.116Z,47.79
2023-02-26T15:55:38.315Z,47.67
2023-02-26T15:58:08.857Z,47.01
2023-02-26T16:00:39.341Z,48.30
2023-02-26T16:03:07.454Z,47.35
2023-02-26T16:05:36.706Z,47.77
2023-02-26T16:08:04.816Z,47.75
2023-02-26T16:10:41.495Z,47.45
2023-02-26T16:13:16.606Z,47.05
2023-02-26T16:15:45.695Z,46.10
2023-02-26T16:18:23.544Z,46.40
2023-02-26T16:20:57.957Z,47.26
2023-02-26T16:23:33.271Z,46.74
2023-02-26T16:26:06.152Z,46.87
2023-02-26T16:28:43.930Z,46.49
2023-02-26T16:31:21.120Z,47.93
2023-02-26T16:33:58.638Z,47.26
2023-02-26T16:36:31.814Z,47.23
2023-02-26T16:39:18.236Z,46.16
2023-02-26T16:42:01.587Z,46.07
2023-02-26T16:44:51.544Z,45.32
2023-02-26T16:47:21.009Z,45.01
2023-02-26T16:49:49.895Z,45.92
2023-02-26T16:52:23.486Z,45.39
2023-02-26T16:55:03.905Z,45.40
2023-02-26T16:57:39.822Z,45.17
2023-02-26T17:00:17.716Z,46.19
2023-02-26T17:02:49.703Z,45.56
2023-02-26T17:05:25.188Z,46.57
2023-02-26T17:08:01.828Z,46.90
2023-02-26T17:10:35.568Z,47.06
2023-02-26T17:13:16.299Z,46.24
2023-02-26T17:15:47.388Z,47.30
2023-02-26T17:18:15.812Z,47.48
2023-02-26T17:20:45.408Z,46.95
2023-02-26T17:23:18.080Z,47.00
2023-02-26T17:25:51.539Z,47.56
2023-02-26T17:28:25.665Z,47.35
2023-02-26T17:30:54.979Z,47.36
2023-02-26T17:33:23.809Z,46.81
2023-02-26T17:35:52.860Z,46.79
2023-02-26T17:38:20.974Z,46.34
2023-02-26T17:40:51.790Z,46.12
2023-02-26T17:43:21.158Z,46.21
2023-02-26T17:45:49.538Z,46.12
2023-02-26T17:48:19.032Z,45.71
2023-02-26T17:50:52.270Z,45.68
2023-02-26T17:53:27.319Z,45.56
2023-02-26T17:55:56.503Z,45.26
2023-02-26T17:58:29.981Z,45.83
2023-02-26T18:00:58.839Z,45.30
2023-02-26T18:03:27.418Z,45.74
2023-02-26T18:05:57.130Z,46.28
2023-02-26T18:08:28.716Z,45.40
2023-02-26T18:10:57.959Z,46.27
2023-02-26T18:13:28.846Z,46.25
2023-02-26T18:15:58.887Z,46.41
2023-02-26T18:18:27.831Z,46.81
2023-02-26T18:20:57.245Z,46.11
2023-02-26T18:23:26.018Z,46.70
2023-02-26T18:25:56.374Z,45.57
2023-02-26T18:28:29.056Z,46.43
2023-02-26T18:30:58.704Z,47.00
2023-02-26T18:33:27.455Z,46.26
2023-02-26T18:35:58.304Z,45.54
2023-02-26T18:38:28.907Z,46.16
2023-02-26T18:40:58.159Z,45.95
2023-02-26T18:43:27.890Z,46.22
2023-02-26T18:45:57.170Z,45.21
2023-02-26T18:48:25.270Z,44.85
2023-02-26T18:50:54.389Z,45.70
2023-02-26T18:53:23.568Z,45.78
2023-02-26T18:55:53.621Z,45.45
2023-02-26T18:58:22.896Z,45.13
2023-02-26T19:00:52.740Z,45.79
2023-02-26T19:03:21.117Z,46.74
2023-02-26T19:05:58.613Z,46.15
2023-02-26T19:08:27.159Z,45.83
2023-02-26T19:10:55.380Z,45.08
2023-02-26T19:13:24.010Z,45.51
2023-02-26T19:15:53.638Z,46.06
2023-02-26T19:18:22.005Z,45.88
2023-02-26T19:20:50.310Z,45.82
2023-02-26T19:23:18.564Z,45.63
2023-02-26T19:25:46.945Z,45.40
2023-02-26T19:28:15.086Z,45.65
2023-02-26T19:30:43.246Z,45.54
2023-02-26T19:33:13.167Z,45.60
2023-02-26T19:35:41.399Z,45.09
2023-02-26T19:38:10.917Z,45.49
2023-02-26T19:40:44.981Z,45.48
2023-02-26T19:43:13.885Z,46.13
2023-02-26T19:45:42.953Z,45.78
2023-02-26T19:48:12.844Z,46.04
2023-02-26T19:50:41.662Z,45.81
2023-02-26T19:53:13.044Z,46.78
2023-02-26T19:55:41.076Z,46.72
2023-02-26T19:58:09.328Z,46.07
2023-02-26T20:00:37.417Z,46.34
2023-02-26T20:03:05.459Z,46.75
2023-02-26T20:05:37.094Z,46.57
2023-02-26T20:08:05.961Z,46.22
2023-02-26T20:10:34.041Z,46.14
2023-02-26T20:13:02.066Z,46.40
2023-02-26T20:15:30.382Z,46.59
2023-02-26T20:17:58.350Z,46.46
2023-02-26T20:20:26.552Z,46.63
2023-02-26T20:22:55.882Z,46.24
2023-02-26T20:25:24.318Z,46.21
2023-02-26T20:27:52.924Z,46.15
2023-02-26T20:30:21.252Z,46.22
2023-02-26T20:32:49.669Z,46.65
2023-02-26T20:35:17.931Z,46.61
2023-02-26T20:37:46.547Z,46.02
2023-02-26T20:40:16.283Z,46.68
2023-02-26T20:42:44.371Z,46.85
2023-02-26T20:45:12.847Z,46.62
2023-02-26T20:47:40.930Z,46.87
2023-02-26T20:50:11.068Z,46.73
2023-02-26T20:52:39.494Z,47.14
2023-02-26T20:55:08.911Z,46.53
2023-02-26T20:57:38.388Z,47.33
2023-02-26T21:00:11.084Z,46.98
2023-02-26T21:02:39.621Z,47.44
2023-02-26T21:05:09.525Z,47.04
2023-02-26T21:07:39.269Z,47.05
2023-02-26T21:10:10.029Z,47.34
2023-02-26T21:12:39.613Z,47.31
2023-02-26T21:15:10.304Z,48.21
2023-02-26T21:17:39.526Z,47.85
2023-02-26T21:20:11.941Z,48.39
2023-02-26T21:22:40.786Z,48.48
2023-02-26T21:25:09.997Z,48.68
2023-02-26T21:27:39.720Z,48.38
2023-02-26T21:30:11.946Z,49.04
2023-02-26T21:32:40.643Z,48.57
2023-02-26T21:35:12.158Z,48.71
2023-02-26T21:37:40.410Z,48.43
2023-02-26T21:40:10.709Z,48.76
2023-02-26T21:42:40.160Z,48.95
2023-02-26T21:45:10.077Z,48.60
2023-02-26T21:47:38.445Z,48.42
2023-02-26T21:50:07.721Z,48.91
2023-02-26T21:52:35.923Z,48.82
2023-02-26T21:55:03.980Z,48.54
2023-02-26T21:57:32.421Z,48.92
2023-02-26T22:00:01.982Z,49.22
2023-02-26T22:02:39.974Z,49.18
2023-02-26T22:05:09.848Z,49.61
2023-02-26T22:07:38.260Z,49.58
2023-02-26T22:10:08.280Z,49.64
2023-02-26T22:12:36.549Z,49.24
2023-02-26T22:15:07.140Z,48.86
2023-02-26T22:17:35.190Z,49.17
2023-02-26T22:20:06.281Z,49.64
2023-02-26T22:22:34.374Z,50.14
2023-02-26T22:25:02.469Z,49.78
2023-02-26T22:27:30.648Z,49.41
2023-02-26T22:29:58.828Z,49.11
2023-02-26T22:32:28.283Z,49.25
2023-02-26T22:34:56.577Z,49.67
2023-02-26T22:37:24.630Z,49.00
2023-02-26T22:39:52.668Z,49.47
2023-02-26T22:42:20.858Z,49.57
2023-02-26T22:44:49.005Z,49.71
2023-02-26T22:47:17.209Z,49.96
2023-02-26T22:49:46.726Z,49.95
2023-02-26T22:52:14.952Z,49.98
2023-02-26T22:54:45.526Z,49.47
2023-02-26T22:57:14.029Z,50.60
2023-02-26T22:59:42.129Z,50.00
2023-02-26T23:02:10.272Z,50.43
2023-02-26T23:04:38.529Z,50.41
2023-02-26T23:07:07.973Z,49.90
2023-02-26T23:09:37.332Z,50.79
2023-02-26T23:12:06.330Z,50.57
2023-02-26T23:14:34.840Z,50.31
2023-02-26T23:17:04.061Z,50.90
2023-02-26T23:19:32.288Z,50.50
2023-02-26T23:22:00.348Z,50.57
2023-02-26T23:24:29.749Z,51.60
2023-02-26T23:26:57.861Z,51.66
2023-02-26T23:29:25.913Z,51.73
2023-02-26T23:31:54.234Z,51.39
2023-02-26T23:34:22.429Z,51.96
2023-02-26T23:36:50.821Z,52.13
2023-02-26T23:39:18.840Z,52.10
2023-02-26T23:41:48.346Z,52.21
2023-02-26T23:44:16.327Z,52.58
2023-02-26T23:46:44.380Z,52.30
2023-02-26T23:49:12.448Z,52.28
2023-02-26T23:51:40.548Z,52.20
2023-02-26T23:54:08.571Z,52.04
2023-02-26T23:56:36.806Z,52.73
2023-02-26T23:59:06.288Z,52.91
